createdAt,value
2024-03-30T00:00:21.332Z,23.40
2024-03-30T00:03:13.575Z,25.90
2024-03-30T00:05:44.699Z,23.90
2024-03-30T00:08:16.477Z,20.10
2024-03-30T00:10:47.632Z,17.50
2024-03-30T00:13:18.873Z,18.40
2024-03-30T00:15:50.054Z,19.40
2024-03-30T00:18:21.775Z,22.00
2024-03-30T00:20:53.115Z,20.90
2024-03-30T00:23:24.690Z,19.70
2024-03-30T00:25:56.585Z,23.10
2024-03-30T00:28:28.413Z,18.70
2024-03-30T00:30:59.481Z,16.70
2024-03-30T00:33:30.854Z,26.50
2024-03-30T00:36:01.973Z,43.60
2024-03-30T00:38:33.307Z,27.00
2024-03-30T00:41:04.862Z,12.60
2024-03-30T00:43:36.082Z,15.20
2024-03-30T00:46:07.412Z,13.20
2024-03-30T00:48:38.583Z,13.60
2024-03-30T00:51:09.658Z,12.20
2024-03-30T00:53:41.183Z,10.90
2024-03-30T00:56:12.459Z,13.70
2024-03-30T00:58:43.649Z,13.40
2024-03-30T01:01:17.996Z,12.60
2024-03-30T01:03:49.367Z,11.40
2024-03-30T01:06:22.007Z,14.10
2024-03-30T01:08:54.136Z,13.90
2024-03-30T01:11:26.875Z,15.00
2024-03-30T01:13:59.361Z,11.40
2024-03-30T01:16:31.706Z,18.10
2024-03-30T01:19:04.708Z,22.40
2024-03-30T01:21:37.433Z,22.30
2024-03-30T01:24:10.622Z,12.70
2024-03-30T01:26:47.037Z,12.40
2024-03-30T01:29:22.422Z,14.70
2024-03-30T01:31:54.972Z,16.00
2024-03-30T01:34:27.671Z,20.10
2024-03-30T01:36:58.859Z,20.30
2024-03-30T01:39:30.254Z,22.40
2024-03-30T01:42:01.407Z,18.20
2024-03-30T01:44:32.743Z,21.60
2024-03-30T01:47:04.802Z,17.30
2024-03-30T01:49:36.168Z,31.00
2024-03-30T01:52:07.893Z,29.60
2024-03-30T01:54:39.511Z,35.10
2024-03-30T01:57:11.028Z,17.00
2024-03-30T01:59:42.804Z,17.20
2024-03-30T02:02:15.470Z,19.90
2024-03-30T02:04:47.946Z,17.40
2024-03-30T02:07:19.329Z,21.30
2024-03-30T02:09:50.863Z,23.10
2024-03-30T02:12:23.120Z,22.90
2024-03-30T02:14:54.445Z,24.80
2024-03-30T02:17:25.929Z,21.40
2024-03-30T02:19:58.707Z,22.40
2024-03-30T02:22:30.038Z,23.70
2024-03-30T02:25:01.118Z,24.90
2024-03-30T02:27:32.981Z,24.20
2024-03-30T02:30:05.698Z,23.60
2024-03-30T02:32:37.817Z,25.70
2024-03-30T02:35:09.574Z,30.00
2024-03-30T02:37:41.463Z,31.90
2024-03-30T02:40:13.520Z,83.10
2024-03-30T02:42:44.948Z,63.00
2024-03-30T02:45:16.765Z,28.60
2024-03-30T02:47:48.001Z,29.40
2024-03-30T02:50:19.228Z,26.00
2024-03-30T02:52:50.383Z,21.10
2024-03-30T02:55:21.700Z,23.80
2024-03-30T02:57:52.807Z,32.30
2024-03-30T03:00:24.114Z,33.40
2024-03-30T03:02:55.846Z,35.80
2024-03-30T03:05:27.337Z,51.20
2024-03-30T03:07:58.638Z,43.10
2024-03-30T03:10:29.862Z,34.60
2024-03-30T03:13:01.128Z,35.70
2024-03-30T03:15:32.687Z,31.00
2024-03-30T03:18:04.675Z,30.70
2024-03-30T03:20:36.336Z,32.20
2024-03-30T03:23:07.848Z,34.60
2024-03-30T03:25:39.330Z,114.10
2024-03-30T03:28:10.479Z,39.20
2024-03-30T03:30:42.852Z,30.50
2024-03-30T03:33:14.913Z,35.90
2024-03-30T03:35:46.100Z,35.00
2024-03-30T03:38:17.442Z,33.80
2024-03-30T03:40:48.757Z,32.60
2024-03-30T03:43:20.109Z,30.10
2024-03-30T03:45:51.582Z,30.10
2024-03-30T03:48:22.915Z,32.40
2024-03-30T03:50:54.406Z,25.40
2024-03-30T03:53:25.924Z,70.40
2024-03-30T03:55:57.024Z,79.30
2024-03-30T03:58:28.923Z,48.90
2024-03-30T04:01:04.269Z,44.40
2024-03-30T04:03:37.467Z,206.10
2024-03-30T04:06:13.584Z,114.20
2024-03-30T04:08:47.608Z,38.80
2024-03-30T04:11:18.843Z,49.80
2024-03-30T04:13:50.365Z,32.10
2024-03-30T04:16:21.581Z,31.80
2024-03-30T04:18:54.138Z,26.70
2024-03-30T04:21:27.456Z,24.90
2024-03-30T04:23:58.832Z,27.00
2024-03-30T04:26:30.040Z,35.60
2024-03-30T04:29:01.234Z,34.30
2024-03-30T04:31:32.628Z,41.60
2024-03-30T04:34:04.302Z,32.50
2024-03-30T04:36:35.210Z,89.80
2024-03-30T04:39:06.512Z,35.90
2024-03-30T04:41:37.643Z,33.70
2024-03-30T04:44:09.282Z,36.20
2024-03-30T04:46:40.644Z,36.90
2024-03-30T04:49:12.601Z,34.30
2024-03-30T04:51:44.267Z,38.30
2024-03-30T04:54:15.751Z,38.20
2024-03-30T04:56:47.183Z,42.40
2024-03-30T04:59:18.651Z,31.10
2024-03-30T05:01:49.732Z,37.80
2024-03-30T05:04:21.149Z,30.00
2024-03-30T05:06:52.367Z,32.30
2024-03-30T05:09:23.549Z,28.30
2024-03-30T05:11:54.910Z,28.60
2024-03-30T05:14:26.151Z,34.10
2024-03-30T05:16:57.462Z,26.90
2024-03-30T05:19:46.433Z,31.30
2024-03-30T05:22:17.904Z,32.90
2024-03-30T05:24:49.114Z,31.70
2024-03-30T05:27:20.465Z,28.60
2024-03-30T05:29:51.727Z,33.30
2024-03-30T05:32:22.865Z,38.10
2024-03-30T05:34:54.420Z,27.50
2024-03-30T05:37:25.582Z,25.00
2024-03-30T05:39:57.043Z,31.70
2024-03-30T05:42:28.168Z,23.20
2024-03-30T05:44:59.730Z,24.50
2024-03-30T05:47:31.124Z,17.10
2024-03-30T05:50:02.910Z,23.30
2024-03-30T05:52:34.028Z,21.80
2024-03-30T05:55:06.165Z,27.10
2024-03-30T05:57:37.321Z,31.40
2024-03-30T06:00:12.111Z,34.70
2024-03-30T06:02:47.049Z,33.10
2024-03-30T06:05:18.596Z,29.10
2024-03-30T06:07:49.848Z,30.20
2024-03-30T06:10:21.070Z,31.20
2024-03-30T06:12:52.468Z,26.50
2024-03-30T06:15:23.648Z,30.00
2024-03-30T06:17:54.986Z,34.50
2024-03-30T06:20:26.385Z,32.70
2024-03-30T06:22:57.570Z,33.80
2024-03-30T06:25:29.085Z,29.80
2024-03-30T06:28:00.367Z,28.60
2024-03-30T06:30:31.470Z,32.90
2024-03-30T06:33:02.806Z,26.10
2024-03-30T06:35:36.017Z,24.70
2024-03-30T06:38:07.542Z,22.30
2024-03-30T06:40:56.595Z,21.90
2024-03-30T06:43:47.574Z,22.10
2024-03-30T06:46:20.577Z,26.00
2024-03-30T06:48:51.711Z,20.30
2024-03-30T06:51:23.470Z,23.80
2024-03-30T06:53:54.681Z,19.60
2024-03-30T06:56:26.004Z,17.90
2024-03-30T06:58:57.588Z,15.50
2024-03-30T07:01:28.962Z,15.50
2024-03-30T07:04:00.687Z,14.70
2024-03-30T07:06:31.986Z,14.90
2024-03-30T07:09:03.230Z,15.40
2024-03-30T07:11:34.544Z,14.30
2024-03-30T07:14:06.092Z,13.70
2024-03-30T07:16:37.326Z,16.20
2024-03-30T07:19:08.631Z,17.90
2024-03-30T07:21:40.148Z,12.50
2024-03-30T07:24:11.362Z,14.10
2024-03-30T07:26:42.846Z,12.80
2024-03-30T07:29:14.261Z,13.70
2024-03-30T07:31:46.867Z,14.40
2024-03-30T07:34:18.332Z,17.00
2024-03-30T07:36:49.711Z,13.10
2024-03-30T07:39:21.201Z,11.90
2024-03-30T07:41:52.761Z,13.30
2024-03-30T07:44:27.332Z,14.60
2024-03-30T07:46:58.477Z,10.60
2024-03-30T07:49:29.866Z,15.60
2024-03-30T07:52:01.391Z,12.40
2024-03-30T07:54:32.810Z,10.30
2024-03-30T07:57:05.013Z,18.90
2024-03-30T07:59:36.256Z,19.80
2024-03-30T08:02:07.670Z,15.10
2024-03-30T08:04:38.809Z,9.90
2024-03-30T08:07:10.260Z,12.50
2024-03-30T08:09:41.749Z,13.10
2024-03-30T08:12:13.298Z,9.70
2024-03-30T08:14:44.580Z,13.00
2024-03-30T08:17:15.878Z,11.70
2024-03-30T08:19:47.247Z,12.60
2024-03-30T08:22:19.813Z,13.20
2024-03-30T08:24:51.260Z,9.90
2024-03-30T08:27:25.614Z,11.80
2024-03-30T08:29:58.803Z,9.90
2024-03-30T08:32:30.639Z,13.80
2024-03-30T08:35:02.141Z,15.50
2024-03-30T08:37:33.265Z,13.90
2024-03-30T08:40:04.971Z,11.00
2024-03-30T08:42:36.040Z,8.20
2024-03-30T08:45:08.415Z,10.80
2024-03-30T08:47:39.644Z,14.40
2024-03-30T08:50:11.309Z,13.50
2024-03-30T08:52:42.484Z,11.60
2024-03-30T08:55:13.896Z,13.10
2024-03-30T08:57:45.155Z,10.10
2024-03-30T09:00:17.068Z,14.80
2024-03-30T09:02:48.154Z,13.60
2024-03-30T09:05:19.612Z,15.50
2024-03-30T09:07:51.568Z,10.70
2024-03-30T09:10:23.138Z,10.60
2024-03-30T09:12:54.511Z,18.30
2024-03-30T09:15:26.650Z,28.40
2024-03-30T09:17:57.806Z,15.50
2024-03-30T09:20:29.159Z,12.50
2024-03-30T09:23:00.498Z,14.70
2024-03-30T09:25:32.045Z,13.10
2024-03-30T09:28:03.628Z,14.40
2024-03-30T09:30:34.847Z,12.40
2024-03-30T09:33:06.818Z,10.50
2024-03-30T09:35:41.662Z,14.10
2024-03-30T09:38:12.758Z,11.40
2024-03-30T09:40:49.998Z,14.30
2024-03-30T09:43:21.548Z,15.80
2024-03-30T09:45:53.480Z,14.90
2024-03-30T09:48:26.133Z,14.30
2024-03-30T09:50:58.588Z,15.70
2024-03-30T09:53:31.122Z,11.50
2024-03-30T09:56:04.889Z,12.70
2024-03-30T09:58:37.029Z,27.30
2024-03-30T10:01:10.635Z,18.00
2024-03-30T10:03:41.781Z,18.60
2024-03-30T10:06:18.320Z,12.80
2024-03-30T10:08:54.712Z,16.30
2024-03-30T10:11:30.416Z,18.30
2024-03-30T10:14:10.360Z,17.30
2024-03-30T10:16:41.719Z,15.90
2024-03-30T10:19:15.443Z,15.80
2024-03-30T10:21:47.663Z,11.20
2024-03-30T10:24:19.358Z,12.70
2024-03-30T10:26:51.547Z,13.90
2024-03-30T10:29:22.890Z,14.80
2024-03-30T10:31:54.773Z,13.20
2024-03-30T10:34:28.185Z,13.50
2024-03-30T10:37:01.336Z,19.00
2024-03-30T10:39:33.744Z,15.60
2024-03-30T10:42:04.930Z,19.50
2024-03-30T10:44:36.254Z,20.00
2024-03-30T10:47:08.511Z,19.30
2024-03-30T10:49:39.722Z,13.70
2024-03-30T10:52:14.447Z,20.20
2024-03-30T10:54:46.910Z,16.20
2024-03-30T10:57:19.230Z,20.40
2024-03-30T10:59:52.217Z,22.80
2024-03-30T11:02:25.090Z,21.80
2024-03-30T11:04:59.102Z,16.60
2024-03-30T11:07:30.748Z,19.20
2024-03-30T11:10:03.454Z,15.10
2024-03-30T11:12:35.391Z,19.60
2024-03-30T11:15:07.743Z,18.00
2024-03-30T11:17:44.325Z,19.10
2024-03-30T11:20:17.273Z,21.80
2024-03-30T11:22:54.771Z,19.40
2024-03-30T11:25:31.484Z,24.00
2024-03-30T11:28:08.785Z,25.30
2024-03-30T11:30:53.136Z,25.80
2024-03-30T11:33:31.920Z,26.10
2024-03-30T11:36:07.643Z,30.40
2024-03-30T11:41:14.818Z,31.90
2024-03-30T11:43:54.391Z,28.50
2024-03-30T11:46:28.413Z,25.50
2024-03-30T11:49:00.238Z,26.20
2024-03-30T11:51:32.466Z,32.70
2024-03-30T11:54:19.007Z,29.50
2024-03-30T11:57:16.373Z,23.10
2024-03-30T11:59:55.194Z,35.00
2024-03-30T12:02:30.847Z,32.10
2024-03-30T12:05:06.815Z,29.20
2024-03-30T12:07:39.409Z,35.30
2024-03-30T12:10:12.140Z,27.20
2024-03-30T12:12:43.341Z,31.00
2024-03-30T12:15:16.350Z,42.80
2024-03-30T12:17:47.734Z,32.30
2024-03-30T12:20:20.412Z,36.20
2024-03-30T12:22:52.000Z,39.20
2024-03-30T12:25:25.690Z,42.20
2024-03-30T12:27:58.682Z,35.80
2024-03-30T12:30:30.539Z,36.80
2024-03-30T12:33:02.379Z,38.40
2024-03-30T12:35:33.615Z,59.50
2024-03-30T12:38:06.146Z,34.10
2024-03-30T12:40:38.118Z,30.90
2024-03-30T12:43:09.421Z,34.00
2024-03-30T12:45:41.108Z,41.90
2024-03-30T12:48:12.747Z,36.10
2024-03-30T12:50:44.305Z,40.50
2024-03-30T12:53:16.050Z,39.50
2024-03-30T12:55:47.218Z,50.40
2024-03-30T12:58:19.048Z,48.00
2024-03-30T13:00:50.416Z,51.30
2024-03-30T13:03:22.282Z,51.60
2024-03-30T13:05:53.690Z,50.80
2024-03-30T13:08:25.370Z,65.10
2024-03-30T13:10:58.484Z,53.10
2024-03-30T13:13:29.657Z,64.00
2024-03-30T13:16:02.032Z,53.70
2024-03-30T13:18:33.471Z,61.90
2024-03-30T13:21:09.621Z,55.40
2024-03-30T13:23:48.033Z,68.10
2024-03-30T13:26:19.632Z,60.10
2024-03-30T13:28:51.858Z,68.00
2024-03-30T13:31:23.209Z,54.30
2024-03-30T13:33:54.432Z,63.00
2024-03-30T13:36:25.936Z,56.20
2024-03-30T13:38:57.112Z,57.80
2024-03-30T13:41:28.402Z,61.10
2024-03-30T13:43:59.469Z,61.50
2024-03-30T13:46:30.739Z,58.70
2024-03-30T13:49:04.798Z,65.60
2024-03-30T13:51:36.065Z,56.70
2024-03-30T13:54:07.610Z,76.50
2024-03-30T13:56:38.799Z,74.00
2024-03-30T13:59:09.998Z,74.50
2024-03-30T14:01:41.654Z,79.60
2024-03-30T14:04:12.998Z,75.00
2024-03-30T14:06:44.445Z,82.80
2024-03-30T14:09:16.193Z,62.90
2024-03-30T14:11:49.330Z,81.80
2024-03-30T14:14:20.384Z,96.60
2024-03-30T14:16:52.237Z,81.00
2024-03-30T14:19:23.372Z,69.30
2024-03-30T14:21:54.415Z,84.20
2024-03-30T14:24:26.267Z,78.80
2024-03-30T14:26:57.668Z,84.60
2024-03-30T14:29:29.284Z,77.10
2024-03-30T14:32:00.473Z,86.60
2024-03-30T14:34:31.623Z,78.30
2024-03-30T14:37:12.620Z,78.60
2024-03-30T14:39:46.675Z,81.20
2024-03-30T14:42:18.027Z,75.60
2024-03-30T14:44:52.308Z,88.40
2024-03-30T14:47:23.935Z,76.10
2024-03-30T14:49:55.219Z,86.10
2024-03-30T14:52:26.618Z,82.10
2024-03-30T14:54:58.117Z,79.00
2024-03-30T14:57:29.783Z,83.20
2024-03-30T15:00:01.402Z,69.10
2024-03-30T15:02:34.437Z,83.80
2024-03-30T15:05:06.631Z,72.40
2024-03-30T15:07:37.867Z,85.50
2024-03-30T15:10:09.962Z,77.20
2024-03-30T15:12:41.147Z,70.20
2024-03-30T15:15:12.308Z,95.90
2024-03-30T15:17:43.513Z,73.20
2024-03-30T15:20:15.106Z,86.30
2024-03-30T15:22:46.553Z,72.70
2024-03-30T15:25:17.728Z,66.30
2024-03-30T15:27:49.075Z,85.30
2024-03-30T15:30:38.249Z,69.70
2024-03-30T15:33:09.544Z,76.50
2024-03-30T15:35:40.890Z,75.90
2024-03-30T15:38:12.394Z,74.60
2024-03-30T15:40:43.504Z,71.60
2024-03-30T15:43:15.314Z,68.90
2024-03-30T15:45:46.801Z,75.70
2024-03-30T15:48:18.165Z,67.00
2024-03-30T15:50:57.716Z,70.80
2024-03-30T15:53:29.557Z,76.30
2024-03-30T15:56:02.967Z,63.90
2024-03-30T15:58:35.631Z,78.50
2024-03-30T16:01:08.906Z,74.40
2024-03-30T16:03:40.256Z,74.30
2024-03-30T16:06:12.161Z,71.70
2024-03-30T16:08:43.507Z,65.50
2024-03-30T16:11:14.635Z,80.80
2024-03-30T16:13:45.763Z,67.00
2024-03-30T16:16:17.762Z,77.30
2024-03-30T16:18:48.892Z,72.70
2024-03-30T16:21:20.351Z,82.70
2024-03-30T16:23:51.491Z,72.30
2024-03-30T16:26:22.679Z,78.60
2024-03-30T16:28:53.972Z,85.60
2024-03-30T16:31:37.002Z,78.50
2024-03-30T16:34:09.297Z,87.80
2024-03-30T16:36:40.561Z,80.80
2024-03-30T16:39:18.749Z,80.70
2024-03-30T16:41:52.119Z,79.10
2024-03-30T16:44:32.175Z,93.50
2024-03-30T16:47:04.063Z,99.80
2024-03-30T16:49:35.186Z,92.00
2024-03-30T16:52:07.481Z,70.90
2024-03-30T16:54:38.690Z,88.50
2024-03-30T16:57:10.433Z,82.90
2024-03-30T16:59:41.741Z,80.10
2024-03-30T17:02:13.533Z,89.50
2024-03-30T17:04:46.164Z,89.20
2024-03-30T17:07:17.375Z,98.10
2024-03-30T17:09:49.241Z,75.20
2024-03-30T17:12:20.817Z,79.80
2024-03-30T17:14:52.085Z,80.60
2024-03-30T17:17:23.271Z,86.40
2024-03-30T17:19:54.434Z,75.40
2024-03-30T17:22:25.830Z,94.90
2024-03-30T17:24:58.465Z,90.60
2024-03-30T17:27:30.749Z,82.00
2024-03-30T17:30:01.913Z,77.40
2024-03-30T17:32:33.422Z,137.80
2024-03-30T17:35:07.416Z,153.90
2024-03-30T17:37:38.693Z,242.70
2024-03-30T17:40:12.035Z,141.30
2024-03-30T17:42:43.683Z,145.40
2024-03-30T17:45:14.969Z,226.60
2024-03-30T17:47:46.499Z,301.50
2024-03-30T17:50:17.841Z,258.00
2024-03-30T17:52:51.208Z,144.70
2024-03-30T17:55:22.501Z,101.90
2024-03-30T17:57:53.662Z,91.80
2024-03-30T18:00:26.330Z,92.40
2024-03-30T18:03:01.501Z,87.40
2024-03-30T18:05:32.842Z,72.40
2024-03-30T18:08:04.378Z,83.90
2024-03-30T18:10:35.505Z,91.60
2024-03-30T18:13:08.747Z,107.30
2024-03-30T18:15:39.922Z,106.50
2024-03-30T18:18:11.025Z,109.80
2024-03-30T18:20:44.808Z,99.70
2024-03-30T18:23:18.160Z,108.90
2024-03-30T18:25:49.236Z,105.00
2024-03-30T18:28:20.775Z,113.90
2024-03-30T18:30:51.921Z,94.80
2024-03-30T18:33:24.043Z,87.30
2024-03-30T18:35:55.448Z,81.70
2024-03-30T18:38:26.589Z,86.00
2024-03-30T18:40:58.201Z,92.70
2024-03-30T18:43:29.981Z,83.60
2024-03-30T18:46:04.613Z,82.80
2024-03-30T18:48:37.080Z,89.30
2024-03-30T18:51:10.542Z,85.30
2024-03-30T18:53:41.891Z,97.80
2024-03-30T18:56:14.243Z,117.30
2024-03-30T18:58:49.511Z,110.10
2024-03-30T19:01:21.538Z,112.00
2024-03-30T19:03:56.672Z,103.50
2024-03-30T19:06:28.027Z,103.70
2024-03-30T19:08:59.377Z,102.00
2024-03-30T19:11:30.678Z,101.40
2024-03-30T19:14:01.745Z,106.90
2024-03-30T19:16:33.049Z,87.10
2024-03-30T19:19:04.483Z,123.60
2024-03-30T19:21:35.696Z,114.60
2024-03-30T19:24:08.220Z,132.80
2024-03-30T19:26:39.396Z,118.20
2024-03-30T19:29:10.564Z,117.20
2024-03-30T19:31:41.707Z,109.90
2024-03-30T19:34:14.020Z,77.50
2024-03-30T19:36:47.819Z,80.30
2024-03-30T19:39:19.048Z,88.30
2024-03-30T19:41:51.552Z,89.00
2024-03-30T19:44:23.340Z,83.90
2024-03-30T19:46:54.498Z,81.40
2024-03-30T19:49:26.031Z,87.40
2024-03-30T19:51:57.183Z,109.20
2024-03-30T19:54:28.251Z,97.30
2024-03-30T19:56:59.316Z,87.50
2024-03-30T19:59:30.699Z,110.80
2024-03-30T20:02:02.074Z,96.70
2024-03-30T20:04:33.380Z,89.40
2024-03-30T20:07:04.547Z,91.40
2024-03-30T20:09:36.504Z,94.90
2024-03-30T20:12:08.861Z,86.30
2024-03-30T20:14:40.013Z,93.30
2024-03-30T20:17:11.274Z,80.80
2024-03-30T20:19:43.104Z,92.20
2024-03-30T20:22:14.556Z,94.00
2024-03-30T20:24:47.844Z,83.20
2024-03-30T20:27:19.312Z,105.00
2024-03-30T20:29:50.754Z,81.00
2024-03-30T20:32:24.152Z,96.50
2024-03-30T20:34:55.531Z,108.90
2024-03-30T20:37:26.675Z,105.80
2024-03-30T20:39:57.894Z,91.30
2024-03-30T20:42:29.048Z,98.40
2024-03-30T20:45:01.427Z,95.90
2024-03-30T20:47:32.553Z,90.30
2024-03-30T20:50:04.008Z,91.10
2024-03-30T20:52:35.275Z,92.60
2024-03-30T20:55:07.180Z,89.80
2024-03-30T20:57:38.674Z,97.50
2024-03-30T21:00:12.572Z,92.50
2024-03-30T21:02:43.847Z,80.40
2024-03-30T21:05:18.270Z,78.90
2024-03-30T21:07:49.867Z,85.70
2024-03-30T21:10:21.346Z,83.90
2024-03-30T21:12:53.963Z,88.90
2024-03-30T21:15:27.238Z,91.40
2024-03-30T21:18:00.358Z,96.80
2024-03-30T21:20:33.316Z,87.30
2024-03-30T21:23:04.704Z,86.50
2024-03-30T21:25:35.802Z,94.20
2024-03-30T21:28:07.264Z,89.60
2024-03-30T21:30:38.447Z,106.60
2024-03-30T21:33:09.586Z,117.40
2024-03-30T21:35:40.725Z,104.10
2024-03-30T21:38:12.155Z,112.50
2024-03-30T21:40:43.527Z,103.00
2024-03-30T21:43:15.215Z,92.90
2024-03-30T21:45:55.104Z,109.70
2024-03-30T21:48:27.286Z,93.00
2024-03-30T21:50:59.662Z,92.70
2024-03-30T21:53:30.925Z,83.30
2024-03-30T21:56:02.331Z,77.80
2024-03-30T21:58:33.689Z,88.40
2024-03-30T22:01:05.365Z,84.80
2024-03-30T22:03:36.741Z,92.50
2024-03-30T22:06:08.720Z,85.10
2024-03-30T22:08:39.834Z,81.60
2024-03-30T22:11:11.282Z,78.10
2024-03-30T22:13:42.328Z,77.90
2024-03-30T22:16:13.787Z,86.50
2024-03-30T22:18:45.113Z,85.40
2024-03-30T22:21:16.576Z,79.70
2024-03-30T22:23:48.103Z,118.70
2024-03-30T22:26:19.595Z,86.90
2024-03-30T22:28:50.704Z,76.70
2024-03-30T22:31:22.062Z,72.80
2024-03-30T22:33:56.015Z,77.00
2024-03-30T22:36:27.328Z,76.20
2024-03-30T22:38:59.087Z,81.00
2024-03-30T22:41:30.337Z,89.50
2024-03-30T22:44:01.557Z,85.60
2024-03-30T22:46:32.860Z,97.10
2024-03-30T22:49:04.580Z,88.10
2024-03-30T22:51:35.716Z,80.00
2024-03-30T22:54:07.114Z,79.10
2024-03-30T22:56:38.320Z,76.50
2024-03-30T22:59:09.513Z,67.80
2024-03-30T23:01:41.950Z,75.80
2024-03-30T23:04:13.394Z,65.20
2024-03-30T23:06:44.638Z,71.70
2024-03-30T23:09:16.106Z,66.90
2024-03-30T23:11:47.272Z,72.60
2024-03-30T23:14:18.492Z,73.70
2024-03-30T23:16:50.307Z,72.50
2024-03-30T23:19:22.747Z,73.30
2024-03-30T23:21:55.907Z,76.10
2024-03-30T23:24:27.524Z,85.20
2024-03-30T23:26:58.677Z,80.30
2024-03-30T23:29:29.982Z,69.40
2024-03-30T23:32:01.242Z,79.80
2024-03-30T23:34:32.894Z,81.40
2024-03-30T23:37:04.300Z,73.40
2024-03-30T23:39:35.728Z,77.20
2024-03-30T23:42:07.545Z,77.40
2024-03-30T23:44:38.622Z,82.60
2024-03-30T23:47:09.862Z,75.00
2024-03-30T23:49:41.299Z,74.50
2024-03-30T23:52:12.457Z,73.80
2024-03-30T23:54:47.247Z,67.60
2024-03-30T23:57:18.620Z,69.20
2024-03-30T23:59:50.151Z,79.20
